Latest Weather Observations for Townsville

IDQ60801

Issued at 3:32 pm EST Saturday 4 July 2020 (issued every 10 minutes, with the page automatically refreshed every 10 minutes)

About weather observations | Map of weather stations | Latest weather observations for QLD | Other Formats
Station Details ID: 032040 Name: TOWNSVILLE AERO Lat: -19.25 Lon: 146.77 Height: 4.34 m
Data from the previous 72 hours. | See also: Recent months at Townsville
Date/Time
EST
Temp
°C
App
Temp
°C
Dew
Point
°C
Rel
Hum
%
Delta-T
°C
Wind Press
QNH
hPa
Press
MSL
hPa
Rain since
9am
mm
Dir  Spd
km/h
Gust
km/h
Spd
kts
Gust
kts
04/03:30pm 26.5 25.7 13.9 45 7.5 NE 11 15 6 8 1017.3 1017.2 0.0
04/03:00pm 27.1 24.0 10.3 35 9.4 SSE 17 30 9 16 1017.2 1017.1 0.0
04/02:30pm 27.5 24.6 9.8 33 9.8 S 15 28 8 15 1017.5 1017.4 0.0
04/02:00pm 26.5 24.4 11.0 38 8.7 NE 13 17 7 9 1017.7 1017.6 0.0
04/01:30pm 27.1 25.4 12.3 39 8.6 S 13 22 7 12 1018.2 1018.1 0.0
04/01:00pm 26.7 25.4 13.8 45 7.6 S 13 22 7 12 1018.6 1018.5 0.0
04/12:30pm 25.9 24.5 10.9 39 8.4 SE 9 15 5 8 1019.1 1019.0 0.0
04/12:00pm 25.7 23.6 11.1 40 8.2 SE 13 19 7 10 1019.8 1019.7 0.0
04/11:30am 25.3 23.5 10.7 40 8.2 SSE 11 20 6 11 1020.3 1020.2 0.0
04/11:00am 25.1 23.9 12.7 46 7.1 S 11 15 6 8 1020.6 1020.5 0.0
04/10:30am 23.9 22.3 12.8 49 6.4 SW 13 19 7 10 1020.9 1020.8 0.0
04/10:00am 22.7 23.8 13.5 56 5.3 CALM 0 0 0 0 1021.2 1021.1 0.0
04/09:30am 21.4 22.6 13.8 62 4.4 CALM 0 0 0 0 1021.3 1021.2 0.0
04/09:00am 20.8 22.5 15.1 70 3.4 CALM 0 4 0 2 1021.4 1021.3 0.0
04/08:30am 18.8 18.4 14.1 74 2.7 S 9 13 5 7 1021.2 1021.1 0.0
04/08:00am 16.8 17.4 15.3 91 0.9 SE 6 9 3 5 1020.8 1020.7 0.0
04/07:30am 14.5 15.9 14.3 99 0.1 CALM 0 0 0 0 1020.6 1020.5 0.0
04/07:00am 13.5 14.5 13.3 99 0.1 CALM 0 0 0 0 1020.3 1020.2 0.0
04/06:30am 14.1 13.9 13.6 97 0.3 SSE 7 9 4 5 1020.2 1020.1 0.0
04/06:00am 13.9 13.6 13.4 97 0.3 SSE 7 9 4 5 1020.2 1020.1 0.0
04/05:30am 14.4 14.4 14.2 99 0.1 SSE 7 9 4 5 1019.9 1019.8 0.0
04/05:00am 14.2 15.5 14.2 100 0.0 CALM 0 0 0 0 1020.0 1019.9 0.0
04/04:30am 14.2 14.4 14.2 100 0.0 NW 6 7 3 4 1019.9 1019.8 0.0
04/04:24am 14.1 14.3 14.1 100 0.0 NW 6 7 3 4 1019.9 1019.8 0.0
04/04:06am 14.0 15.3 14.0 100 0.0 CALM 0 0 0 0 1020.0 1019.9 0.0
04/04:02am 14.4 15.8 14.4 100 0.0 CALM 0 0 0 0 1020.1 1020.0 0.0
04/04:00am 14.0 15.3 14.0 100 0.0 CALM 0 0 0 0 1020.1 1020.0 0.0
04/03:42am 14.3 14.5 14.3 100 0.0 NW 6 7 3 4 1020.1 1020.0 0.0
04/03:30am 14.7 15.5 14.7 100 0.0 N 4 9 2 5 1020.2 1020.1 0.0
04/03:00am 14.9 16.5 14.9 100 0.0 CALM 0 6 0 3 1020.5 1020.4 0.0
04/02:38am 15.2 16.9 15.2 100 0.0 CALM 0 0 0 0 1020.7 1020.6 0.0
04/02:30am 15.4 17.2 15.4 100 0.0 CALM 0 0 0 0 1020.6 1020.5 0.0
04/02:18am 15.6 17.4 15.6 100 0.0 CALM 0 0 0 0 1020.8 1020.7 0.0
04/02:00am 15.8 17.6 15.6 99 0.1 CALM 0 0 0 0 1020.9 1020.8 0.0
04/01:30am 15.9 17.7 15.6 98 0.2 CALM 0 0 0 0 1021.2 1021.1 0.0
04/01:00am 17.0 19.0 16.0 94 0.6 CALM 0 0 0 0 1021.4 1021.3 0.0
04/12:30am 17.3 19.6 16.8 97 0.3 CALM 0 0 0 0 1021.6 1021.5 0.0
04/12:00am 18.1 19.4 17.0 93 0.7 SSW 6 7 3 4 1021.6 1021.5 0.0
 
Date/Time
EST
Temp
°C
App
Temp
°C
Dew
Point
°C
Rel
Hum
%
Delta-T
°C
Wind Press
QNH
hPa
Press
MSL
hPa
Rain since
9am
mm
Dir  Spd
km/h
Gust
km/h
Spd
kts
Gust
kts
03/11:30pm 18.0 19.1 17.2 95 0.5 SSE 7 9 4 5 1021.7 1021.6 0.0
03/11:00pm 18.0 19.6 17.0 94 0.6 SW 4 9 2 5 1022.0 1021.9 0.0
03/10:30pm 17.7 20.2 17.2 97 0.3 CALM 0 0 0 0 1022.1 1022.0 0.0
03/10:00pm 17.6 19.7 16.3 92 0.8 CALM 0 0 0 0 1022.0 1021.9 0.0
03/09:30pm 18.9 21.5 17.6 92 0.8 CALM 0 0 0 0 1021.8 1021.7 0.0
03/09:00pm 19.1 20.5 17.4 90 1.0 SW 6 6 3 3 1021.8 1021.7 0.0
03/08:30pm 20.4 21.9 18.0 86 1.5 SSW 7 11 4 6 1021.5 1021.4 0.0
03/08:00pm 20.5 22.1 18.3 87 1.4 ESE 7 11 4 6 1021.2 1021.1 0.0
03/07:30pm 20.5 21.2 17.9 85 1.6 ESE 11 15 6 8 1020.9 1020.8 0.0
03/07:00pm 20.7 20.7 17.1 80 2.2 ESE 13 19 7 10 1020.5 1020.4 0.0
03/06:30pm 21.0 22.4 18.6 86 1.5 E 9 11 5 6 1020.2 1020.1 0.0
03/06:00pm 21.5 21.5 18.9 85 1.6 ENE 17 26 9 14 1019.9 1019.8 0.0
03/05:30pm 21.9 21.2 18.3 80 2.2 ENE 19 26 10 14 1019.7 1019.6 0.0
03/05:00pm 22.5 21.6 18.3 77 2.6 ENE 20 26 11 14 1019.5 1019.4 0.0
03/04:30pm 23.1 21.5 18.4 75 3.0 ENE 24 30 13 16 1019.5 1019.4 0.0
03/04:00pm 23.8 21.5 17.5 68 3.9 ENE 26 32 14 17 1019.1 1019.0 0.0
03/03:30pm 24.5 22.3 16.0 59 5.2 ENE 22 28 12 15 1019.1 1019.0 0.0
03/03:00pm 24.4 22.7 17.1 63 4.5 ENE 22 28 12 15 1019.1 1019.0 0.0
03/02:30pm 24.9 23.4 17.6 64 4.6 ENE 22 30 12 16 1019.3 1019.2 0.0
03/02:00pm 25.0 23.9 17.2 62 4.8 NE 19 26 10 14 1019.6 1019.5 0.0
03/01:30pm 24.5 23.5 15.7 58 5.3 ENE 15 19 8 10 1020.0 1019.9 0.0
03/01:00pm 25.4 24.4 16.5 58 5.5 E 17 24 9 13 1020.2 1020.1 0.0
03/12:30pm 25.2 23.2 15.5 55 5.9 E 20 28 11 15 1020.7 1020.6 0.0
03/12:00pm 25.5 23.8 15.8 55 5.9 E 19 26 10 14 1021.3 1021.2 0.0
03/11:30am 25.0 23.4 15.0 53 6.0 ESE 17 24 9 13 1021.8 1021.7 0.0
03/11:00am 24.1 23.7 15.3 58 5.3 SE 11 17 6 9 1022.2 1022.1 0.0
03/10:30am 23.2 22.5 15.5 62 4.6 SSE 13 19 7 10 1022.5 1022.4 0.0
03/10:00am 22.9 22.1 15.2 62 4.6 SE 13 19 7 10 1022.8 1022.7 0.0
03/09:30am 22.7 21.9 16.0 66 4.0 SE 15 19 8 10 1022.8 1022.7 0.0
03/09:00am 21.0 21.5 15.5 71 3.3 S 7 9 4 5 1022.6 1022.5 0.0
03/08:30am 19.4 21.2 15.5 78 2.3 CALM 0 0 0 0 1022.3 1022.2 0.0
03/08:00am 17.4 19.2 15.6 89 1.1 CALM 0 0 0 0 1021.9 1021.8 0.0
03/07:30am 16.1 16.3 14.6 91 0.9 NNW 7 9 4 5 1021.4 1021.3 0.0
03/07:00am 16.3 17.4 14.5 89 1.0 SSW 2 6 1 3 1020.9 1020.8 0.0
03/06:30am 16.1 16.3 14.6 91 0.9 SSW 7 9 4 5 1020.6 1020.5 0.0
03/06:00am 14.7 16.0 14.2 97 0.3 CALM 0 0 0 0 1020.4 1020.3 0.0
03/05:30am 15.3 16.9 15.0 98 0.2 CALM 0 0 0 0 1020.2 1020.1 0.0
03/05:00am 15.1 16.7 14.9 99 0.1 CALM 0 0 0 0 1020.1 1020.0 0.0
03/04:30am 14.9 16.4 14.7 99 0.1 CALM 0 0 0 0 1020.1 1020.0 0.0
03/04:00am 14.9 16.4 14.7 99 0.1 CALM 0 0 0 0 1019.9 1019.8 0.0
03/03:30am 15.0 16.5 14.7 98 0.2 CALM 0 0 0 0 1019.9 1019.8 0.0
03/03:00am 15.0 16.6 14.8 99 0.1 CALM 0 0 0 0 1020.0 1019.9 0.0
03/02:30am 15.0 15.4 14.7 98 0.2 NW 6 7 3 4 1020.1 1020.0 0.0
03/02:00am 15.0 16.4 14.4 96 0.3 CALM 0 0 0 0 1020.2 1020.1 0.0
03/01:30am 16.2 16.6 15.2 94 0.6 SSE 7 9 4 5 1020.4 1020.3 0.0
03/01:00am 17.3 17.6 14.9 86 1.4 SE 7 9 4 5 1020.7 1020.6 0.0
03/12:30am 18.3 18.5 15.7 85 1.5 SE 9 9 5 5 1020.7 1020.6 0.0
03/12:00am 18.4 18.2 15.8 85 1.5 SE 11 11 6 6 1020.9 1020.8 0.0
 
Date/Time
EST
Temp
°C
App
Temp
°C
Dew
Point
°C
Rel
Hum
%
Delta-T
°C
Wind Press
QNH
hPa
Press
MSL
hPa
Rain since
9am
mm
Dir  Spd
km/h
Gust
km/h
Spd
kts
Gust
kts
02/11:30pm 19.0 19.0 16.2 84 1.7 SE 11 13 6 7 1021.1 1021.0 0.0
02/11:00pm 19.3 18.9 16.3 83 1.8 SE 13 15 7 8 1021.2 1021.1 0.0
02/10:30pm 19.5 19.2 16.5 83 1.8 SE 13 15 7 8 1021.2 1021.1 0.0
02/10:00pm 19.9 19.7 16.7 82 1.9 SE 13 15 7 8 1021.0 1020.9 0.0
02/09:30pm 19.7 19.5 16.7 83 1.8 SE 13 13 7 7 1020.9 1020.8 0.0
02/09:00pm 19.5 20.1 16.7 84 1.7 SE 9 11 5 6 1020.8 1020.7 0.0
02/08:30pm 20.6 21.3 17.0 80 2.2 SE 9 13 5 7 1020.6 1020.5 0.0
02/08:00pm 21.0 21.5 17.4 80 2.2 ESE 11 15 6 8 1020.3 1020.2 0.0
02/07:30pm 21.5 21.6 17.5 78 2.5 ESE 13 17 7 9 1020.0 1019.9 0.0
02/07:00pm 21.8 21.4 17.2 75 2.8 ESE 15 17 8 9 1019.9 1019.8 0.0
02/06:30pm 22.1 21.6 16.8 72 3.2 ESE 15 20 8 11 1019.4 1019.3 0.0
02/06:00pm 22.3 21.1 16.1 68 3.7 E 17 20 9 11 1019.2 1019.1 0.0
02/05:30pm 22.5 21.7 16.1 67 3.9 E 15 20 8 11 1019.0 1018.9 0.0
02/05:00pm 23.4 22.2 16.0 63 4.5 E 17 20 9 11 1018.8 1018.7 0.0
02/04:30pm 24.2 22.9 15.9 59 5.0 ENE 17 24 9 13 1018.5 1018.4 0.0
02/04:00pm 24.9 22.8 15.2 54 5.8 E 20 26 11 14 1018.5 1018.4 0.0
02/03:30pm 24.3 22.5 16.0 60 5.0 E 20 28 11 15 1018.4 1018.3 0.0
02/03:00pm 24.5 22.6 15.7 58 5.3 E 20 32 11 17 1018.4 1018.3 0.0
02/02:30pm 24.5 22.9 16.5 61 4.9 E 20 28 11 15 1018.4 1018.3 0.0
02/02:00pm 24.1 22.7 16.9 64 4.4 E 20 32 11 17 1018.7 1018.6 0.0
02/01:30pm 24.2 22.9 17.2 65 4.3 E 20 30 11 16 1018.8 1018.7 0.0
02/01:00pm 25.1 23.1 17.3 62 4.8 E 24 32 13 17 1019.1 1019.0 0.0
02/12:30pm 25.9 23.5 17.3 59 5.4 ENE 26 35 14 19 1019.4 1019.3 0.0
02/12:00pm 24.9 22.8 16.1 58 5.4 ESE 22 33 12 18 1019.8 1019.7 0.0
02/11:30am 25.0 23.9 17.7 64 4.6 ESE 20 28 11 15 1020.1 1020.0 0.0
02/11:00am 24.7 22.7 16.4 60 5.1 ESE 22 30 12 16 1020.4 1020.3 0.0
02/10:30am 24.2 22.5 16.2 61 4.9 ESE 20 32 11 17 1020.6 1020.5 0.0
02/10:00am 24.4 22.6 16.9 63 4.6 ESE 22 35 12 19 1020.6 1020.5 0.0
02/09:30am 24.1 22.7 17.1 65 4.3 ESE 20 30 11 16 1020.4 1020.3 0.0
02/09:00am 23.9 23.1 17.2 66 4.1 ESE 17 24 9 13 1020.2 1020.1 -
02/08:30am 22.6 22.9 17.1 71 3.4 SE 11 17 6 9 1019.9 1019.8 -
02/08:00am 21.4 22.1 17.0 76 2.7 SSE 9 15 5 8 1019.7 1019.6 -
02/07:30am 19.7 20.8 17.1 85 1.6 S 7 11 4 6 1019.6 1019.5 -
02/07:00am 18.2 20.3 16.2 88 1.2 CALM 0 0 0 0 1019.3 1019.2 -
02/06:30am 20.2 20.8 16.8 81 2.1 SE 9 13 5 7 1018.9 1018.8 -
02/06:00am 20.2 20.4 16.8 81 2.1 SE 11 15 6 8 1018.6 1018.5 -
02/05:30am 20.3 20.3 17.1 82 1.9 SE 13 17 7 9 1018.6 1018.5 -
02/05:00am 20.3 20.6 17.1 82 1.9 ESE 11 17 6 9 1018.4 1018.3 -
02/04:30am 20.5 20.4 16.9 80 2.2 ESE 13 15 7 8 1018.4 1018.3 -
02/04:00am 20.8 21.0 16.8 78 2.4 SE 11 15 6 8 1018.3 1018.2 -
02/03:30am 20.4 20.6 16.8 80 2.2 SE 11 15 6 8 1018.4 1018.3 -
02/03:00am 20.8 20.7 17.0 79 2.3 SE 13 17 7 9 1018.2 1018.1 -
02/02:30am 20.7 20.5 16.7 78 2.4 ESE 13 22 7 12 1018.2 1018.1 -
02/02:00am 20.7 20.5 16.7 78 2.4 ESE 13 17 7 9 1018.3 1018.2 -
02/01:30am 20.7 20.5 16.7 78 2.4 ESE 13 17 7 9 1018.5 1018.4 0.0
02/01:00am 20.9 20.3 16.7 77 2.5 ESE 15 20 8 11 1018.7 1018.6 0.0
02/12:30am 21.3 20.0 16.7 75 2.8 ESE 19 26 10 14 1018.8 1018.7 0.0
02/12:00am 21.8 20.3 16.7 73 3.1 ESE 20 26 11 14 1018.9 1018.8 0.0
 
Date/Time
EST
Temp
°C
App
Temp
°C
Dew
Point
°C
Rel
Hum
%
Delta-T
°C
Wind Press
QNH
hPa
Press
MSL
hPa
Rain since
9am
mm
Dir  Spd
km/h
Gust
km/h
Spd
kts
Gust
kts
01/11:30pm 21.8 20.3 16.7 73 3.1 ESE 20 30 11 16 1019.2 1019.1 0.0
01/11:00pm 22.1 20.8 16.8 72 3.2 ESE 19 26 10 14 1019.4 1019.3 0.0
01/10:30pm 22.1 20.2 16.8 72 3.2 ESE 22 30 12 16 1019.5 1019.4 0.0
01/10:00pm 22.2 19.2 16.9 72 3.2 ESE 28 35 15 19 1019.5 1019.4 0.0
01/09:30pm 22.2 20.8 16.9 72 3.2 ESE 20 30 11 16 1019.4 1019.3 0.0
01/09:00pm 22.2 20.1 17.1 73 3.1 ESE 24 30 13 16 1019.1 1019.0 0.0
01/08:30pm 22.3 20.6 17.2 73 3.1 ESE 22 30 12 16 1019.1 1019.0 0.0
01/08:00pm 22.4 20.7 17.3 73 3.1 ESE 22 32 12 17 1018.7 1018.6 0.0
01/07:30pm 22.5 20.6 17.6 74 3.0 ESE 24 33 13 18 1018.3 1018.2 0.0
01/07:00pm 22.7 20.0 17.6 73 3.2 ESE 28 37 15 20 1017.6 1017.5 0.0
01/06:30pm 22.8 19.1 17.5 72 3.3 ESE 33 44 18 24 1017.0 1016.9 0.0
01/06:00pm 22.8 18.5 17.0 70 3.6 ESE 35 50 19 27 1016.8 1016.7 0.0
01/05:51pm 22.7 18.9 17.2 71 3.4 ESE 33 52 18 28 1016.7 1016.6 0.0
01/05:30pm 22.7 19.2 18.0 75 2.9 ESE 33 43 18 23 1016.6 1016.5 0.0
01/05:00pm 22.6 20.2 18.2 76 2.7 ESE 28 37 15 20 1016.5 1016.4 0.0
01/04:30pm 23.4 21.3 18.1 72 3.3 E 26 37 14 20 1016.2 1016.1 0.0
01/04:00pm 23.9 21.1 17.4 67 4.0 ESE 28 37 15 20 1016.2 1016.1 0.0

Other formats

Comma delimited format used in spreadsheet applications
http://www.bom.gov.au/fwo/IDQ60801/IDQ60801.94294.axf

JavaScript Object Notation format (JSON) in row-major order
http://www.bom.gov.au/fwo/IDQ60801/IDQ60801.94294.json

Data quality

Most of these data are generated automatically and are frequently updated. Quality checks on data are not normally performed. It is possible for incorrect values to appear. Refer to information at About Latest Weather Observations and please check the disclaimer before using these data.